Terminal Aerodrome Forecast
Issued by NWS

Home | Current Version | Previous Version | Text Only | Print | Product List | Glossary On
Versions: 1 2 3 4 5 6 7 8 9 10 11 12 13 14 15 16 17 18 19 20 21 22 23 24 25 26 27 28 29 30 31 32 33 34 35 36 37 38 39 40 41 42 43 44 45 46 47 48 49 50
438
FTUS44 KHGX 221730
TAFUTS
TAF
KUTS 221730Z 2218/2318 31003KT 3/4SM BR VCSH OVC002
      TEMPO 2218/2221 2SM -SHRA BR OVC004
     FM222200 VRB03KT 2SM BR VCSH OVC003
     FM230500 35003KT 1/4SM FG OVC002
     FM231300 03004KT 1/2SM FG VCSH OVC003 PROB30 2314/2318 2SM SHRA
      BR OVC005=

USA.gov is the U.S. government's official web portal to all federal, state and local government web resources and services.